createdAt,value
2019-04-04T00:01:42.612Z,7.80
2019-04-04T00:04:14.267Z,7.80
2019-04-04T00:06:51.982Z,7.80
2019-04-04T00:09:22.917Z,7.70
2019-04-04T00:11:53.542Z,7.70
2019-04-04T00:14:23.415Z,7.70
2019-04-04T00:16:54.708Z,7.60
2019-04-04T00:19:25.964Z,7.60
2019-04-04T00:22:04.914Z,7.60
2019-04-04T00:24:39.354Z,7.60
2019-04-04T00:27:13.840Z,7.60
2019-04-04T00:29:43.185Z,7.60
2019-04-04T00:32:13.144Z,7.60
2019-04-04T00:34:43.108Z,7.60
2019-04-04T00:37:13.272Z,7.60
2019-04-04T00:39:44.692Z,7.60
2019-04-04T00:42:17.563Z,7.50
2019-04-04T00:44:55.812Z,7.50
2019-04-04T00:47:32.334Z,7.50
2019-04-04T00:50:05.995Z,7.50
2019-04-04T00:52:34.612Z,7.50
2019-04-04T00:55:05.438Z,7.40
2019-04-04T00:57:39.591Z,7.30
2019-04-04T01:00:12.309Z,7.30
2019-04-04T01:02:44.553Z,7.30
2019-04-04T01:05:14.562Z,7.30
2019-04-04T01:07:51.846Z,7.20
2019-04-04T01:10:22.771Z,7.20
2019-04-04T01:12:59.152Z,7.10
2019-04-04T01:15:31.201Z,7.20
2019-04-04T01:18:34.986Z,7.20
2019-04-04T01:21:43.965Z,7.10
2019-04-04T01:24:14.274Z,7.20
2019-04-04T01:26:44.374Z,7.20
2019-04-04T01:29:14.876Z,7.10
2019-04-04T01:31:46.017Z,7.10
2019-04-04T01:34:16.261Z,7.10
2019-04-04T01:36:46.153Z,7.30
2019-04-04T01:39:16.183Z,7.20
2019-04-04T01:41:46.210Z,7.10
2019-04-04T01:44:21.520Z,7.00
2019-04-04T01:46:52.779Z,7.00
2019-04-04T01:49:22.653Z,7.00
2019-04-04T01:51:56.660Z,7.00
2019-04-04T01:54:24.023Z,7.00
2019-04-04T01:56:54.178Z,7.10
2019-04-04T01:59:24.448Z,7.10
2019-04-04T02:01:54.630Z,7.10
2019-04-04T02:04:28.595Z,7.00
2019-04-04T02:06:59.158Z,7.00
2019-04-04T02:09:29.742Z,7.00
2019-04-04T02:11:59.760Z,7.00
2019-04-04T02:14:29.935Z,7.10
2019-04-04T02:16:59.900Z,7.00
2019-04-04T02:19:29.899Z,7.00
2019-04-04T02:22:00.395Z,7.00
2019-04-04T02:24:31.800Z,6.90
2019-04-04T02:27:06.975Z,7.00
2019-04-04T02:29:37.460Z,7.00
2019-04-04T02:32:11.236Z,7.00
2019-04-04T02:34:41.094Z,7.00
2019-04-04T02:37:12.290Z,6.90
2019-04-04T02:39:42.214Z,6.90
2019-04-04T02:42:12.462Z,6.90
2019-04-04T02:44:42.587Z,6.80
2019-04-04T02:47:16.942Z,6.80
2019-04-04T02:49:44.591Z,6.80
2019-04-04T02:52:14.423Z,6.90
2019-04-04T02:54:44.224Z,7.00
2019-04-04T02:57:14.561Z,7.00
2019-04-04T02:59:44.438Z,7.00
2019-04-04T03:02:14.532Z,7.00
2019-04-04T03:04:46.808Z,6.90
2019-04-04T03:07:16.253Z,6.90
2019-04-04T03:09:46.417Z,6.90
2019-04-04T03:12:17.648Z,6.90
2019-04-04T03:14:50.566Z,6.80
2019-04-04T03:17:20.055Z,6.80
2019-04-04T03:19:50.012Z,6.80
2019-04-04T03:22:19.845Z,6.70
2019-04-04T03:24:49.847Z,6.70
2019-04-04T03:27:19.654Z,6.60
2019-04-04T03:29:49.590Z,6.60
2019-04-04T03:32:20.059Z,6.70
2019-04-04T03:34:51.456Z,6.70
2019-04-04T03:37:21.687Z,6.80
2019-04-04T03:39:53.137Z,6.80
2019-04-04T03:42:23.498Z,6.80
2019-04-04T03:44:54.619Z,6.80
2019-04-04T03:47:24.549Z,6.80
2019-04-04T03:49:57.490Z,6.70
2019-04-04T03:52:26.303Z,6.80
2019-04-04T03:54:56.693Z,6.80
2019-04-04T03:57:28.152Z,6.80
2019-04-04T03:59:58.059Z,6.70
2019-04-04T04:02:29.826Z,6.80
2019-04-04T04:05:00.997Z,6.80
2019-04-04T04:07:31.503Z,6.80
2019-04-04T04:10:01.617Z,6.80
2019-04-04T04:12:31.522Z,6.80
2019-04-04T04:15:01.500Z,6.80
2019-04-04T04:17:31.546Z,6.80
2019-04-04T04:20:04.119Z,6.80
2019-04-04T04:22:33.853Z,6.80
2019-04-04T04:25:06.567Z,6.70
2019-04-04T04:27:36.554Z,6.80
2019-04-04T04:30:07.721Z,6.80
2019-04-04T04:32:38.202Z,6.80
2019-04-04T04:35:09.074Z,6.80
2019-04-04T04:37:39.179Z,6.80
2019-04-04T04:40:13.628Z,6.80
2019-04-04T04:42:40.828Z,6.80
2019-04-04T04:45:12.588Z,6.80
2019-04-04T04:47:42.761Z,6.80
2019-04-04T04:50:13.444Z,6.80
2019-04-04T04:52:46.482Z,6.80
2019-04-04T04:55:15.142Z,6.80
2019-04-04T04:57:45.704Z,6.80
2019-04-04T05:00:16.683Z,6.90
2019-04-04T05:02:47.915Z,6.90
2019-04-04T05:05:19.391Z,7.00
2019-04-04T05:07:55.054Z,6.90
2019-04-04T05:10:28.750Z,6.90
2019-04-04T05:12:59.383Z,6.90
2019-04-04T05:15:33.121Z,6.90
2019-04-04T05:18:03.482Z,6.90
2019-04-04T05:20:33.428Z,6.90
2019-04-04T05:23:03.469Z,6.90
2019-04-04T05:25:33.340Z,6.90
2019-04-04T05:28:06.464Z,6.90
2019-04-04T05:30:39.918Z,7.00
2019-04-04T05:33:10.861Z,7.10
2019-04-04T05:35:41.376Z,7.20
2019-04-04T05:38:12.462Z,7.20
2019-04-04T05:40:49.516Z,7.30
2019-04-04T05:43:22.205Z,7.30
2019-04-04T05:45:52.475Z,7.40
2019-04-04T05:48:24.880Z,7.30
2019-04-04T05:50:59.292Z,7.40
2019-04-04T05:53:35.066Z,7.30
2019-04-04T05:56:07.145Z,7.40
2019-04-04T05:58:37.489Z,7.40
2019-04-04T06:01:13.385Z,7.30
2019-04-04T06:03:47.762Z,7.30
2019-04-04T06:06:18.230Z,7.30
2019-04-04T06:08:48.038Z,7.40
2019-04-04T06:11:20.751Z,7.50
2019-04-04T06:13:49.581Z,7.50
2019-04-04T06:16:20.792Z,7.50
2019-04-04T06:18:50.862Z,7.50
2019-04-04T06:21:20.776Z,7.50
2019-04-04T06:23:53.897Z,7.50
2019-04-04T06:26:23.789Z,7.60
2019-04-04T06:28:59.640Z,7.60
2019-04-04T06:31:30.955Z,7.60
2019-04-04T06:34:01.572Z,7.60
2019-04-04T06:36:31.583Z,7.60
2019-04-04T06:39:02.271Z,7.60
2019-04-04T06:41:35.461Z,7.60
2019-04-04T06:44:07.846Z,7.60
2019-04-04T06:46:39.041Z,7.70
2019-04-04T06:49:12.396Z,7.80
2019-04-04T06:51:46.084Z,7.80
2019-04-04T06:54:14.313Z,7.90
2019-04-04T06:56:44.351Z,8.00
2019-04-04T06:59:14.587Z,8.00
2019-04-04T07:01:45.523Z,8.00
2019-04-04T07:04:17.287Z,7.90
2019-04-04T07:06:47.418Z,8.00
2019-04-04T07:09:19.031Z,8.00
2019-04-04T07:11:49.665Z,8.00
2019-04-04T07:14:19.812Z,8.00
2019-04-04T07:16:53.132Z,8.10
2019-04-04T07:19:23.449Z,8.30
2019-04-04T07:21:54.344Z,8.50
2019-04-04T07:24:36.600Z,8.60
2019-04-04T07:38:42.545Z,9.10
2019-04-04T07:41:14.779Z,8.60
2019-04-04T07:43:45.410Z,8.70
2019-04-04T07:46:17.068Z,8.80
2019-04-04T07:48:47.057Z,8.70
2019-04-04T07:51:17.151Z,8.70
2019-04-04T07:53:47.218Z,8.70
2019-04-04T07:56:20.323Z,8.50
2019-04-04T07:58:50.983Z,8.50
2019-04-04T08:01:21.249Z,8.60
2019-04-04T08:03:52.067Z,8.60
2019-04-04T08:06:26.988Z,8.60
2019-04-04T08:08:57.088Z,8.60
2019-04-04T08:11:34.935Z,8.50
2019-04-04T08:14:08.062Z,8.40
2019-04-04T08:16:40.647Z,8.50
2019-04-04T08:19:11.236Z,8.50
2019-04-04T08:21:41.343Z,8.50
2019-04-04T08:24:19.588Z,8.60
2019-04-04T08:26:51.581Z,8.80
2019-04-04T08:29:21.717Z,8.80
2019-04-04T08:31:51.662Z,8.90
2019-04-04T08:34:21.761Z,9.00
2019-04-04T08:36:52.487Z,9.00
2019-04-04T08:39:22.781Z,9.10
2019-04-04T08:41:57.279Z,9.00
2019-04-04T08:44:30.986Z,8.90
2019-04-04T08:47:01.194Z,8.90
2019-04-04T08:49:31.640Z,8.90
2019-04-04T08:52:02.249Z,9.00
2019-04-04T08:54:36.783Z,8.90
2019-04-04T08:57:06.528Z,8.90
2019-04-04T08:59:36.478Z,8.80
2019-04-04T09:02:07.561Z,8.80
2019-04-04T09:04:38.559Z,8.70
2019-04-04T09:07:19.069Z,8.80
2019-04-04T09:09:49.219Z,8.80
2019-04-04T09:12:19.738Z,8.80
2019-04-04T09:14:50.420Z,8.80
2019-04-04T09:17:20.748Z,8.90
2019-04-04T09:19:50.747Z,8.90
2019-04-04T09:22:24.084Z,9.10
2019-04-04T09:24:53.815Z,9.10
2019-04-04T09:27:27.182Z,9.20
2019-04-04T09:29:57.122Z,9.10
2019-04-04T09:32:32.672Z,9.10
2019-04-04T09:35:02.962Z,9.10
2019-04-04T09:37:35.544Z,9.20
2019-04-04T09:40:06.817Z,9.40
2019-04-04T09:42:37.962Z,9.40
2019-04-04T09:45:15.661Z,9.30
2019-04-04T09:47:46.527Z,9.10
2019-04-04T09:50:19.507Z,9.00
2019-04-04T09:52:49.423Z,9.10
2019-04-04T09:55:22.343Z,9.30
2019-04-04T09:57:58.498Z,9.20
2019-04-04T10:00:28.972Z,9.10
2019-04-04T10:02:59.351Z,9.20
2019-04-04T10:05:33.737Z,9.20
2019-04-04T10:08:04.764Z,9.30
2019-04-04T10:10:39.781Z,9.40
2019-04-04T10:13:10.093Z,9.60
2019-04-04T10:15:47.718Z,9.60
2019-04-04T10:18:18.607Z,9.60
2019-04-04T10:20:51.286Z,9.70
2019-04-04T10:23:25.292Z,9.80
2019-04-04T10:26:01.565Z,9.80
2019-04-04T10:28:39.442Z,9.60
2019-04-04T10:31:26.967Z,9.70
2019-04-04T10:34:06.402Z,9.60
2019-04-04T10:36:39.648Z,9.70
2019-04-04T10:39:28.287Z,9.90
2019-04-04T10:41:51.231Z,9.90
2019-04-04T10:44:22.984Z,9.90
2019-04-04T10:47:03.731Z,9.70
2019-04-04T10:49:37.236Z,9.80
2019-04-04T10:52:07.991Z,9.70
2019-04-04T10:54:38.112Z,9.60
2019-04-04T10:57:17.364Z,9.50
2019-04-04T10:59:47.601Z,9.50
2019-04-04T11:02:17.821Z,9.40
2019-04-04T11:04:52.825Z,9.40
2019-04-04T11:07:23.967Z,9.20
2019-04-04T11:09:57.049Z,9.10
2019-04-04T11:12:29.353Z,8.90
2019-04-04T11:15:01.643Z,8.80
2019-04-04T11:17:34.068Z,8.70
2019-04-04T11:20:07.895Z,8.60
2019-04-04T11:22:44.232Z,8.50
2019-04-04T11:25:14.863Z,8.40
2019-04-04T11:27:59.719Z,8.40
2019-04-04T11:30:43.658Z,8.40
2019-04-04T11:33:28.233Z,8.20
2019-04-04T11:35:58.158Z,8.20
2019-04-04T11:38:28.696Z,8.20
2019-04-04T11:40:58.973Z,8.40
2019-04-04T11:43:29.077Z,8.70
2019-04-04T11:45:59.600Z,8.90
2019-04-04T11:48:30.608Z,9.00
2019-04-04T11:51:01.693Z,9.10
2019-04-04T11:53:35.733Z,9.00
2019-04-04T11:56:06.458Z,9.00
2019-04-04T11:58:38.307Z,8.90
2019-04-04T12:01:14.249Z,8.80
2019-04-04T12:03:49.362Z,8.80
2019-04-04T12:06:23.142Z,8.90
2019-04-04T12:08:56.365Z,8.90
2019-04-04T12:11:29.273Z,8.90
2019-04-04T12:13:59.677Z,8.70
2019-04-04T12:16:45.568Z,8.80
2019-04-04T12:19:47.694Z,8.90
2019-04-04T12:22:28.613Z,8.90
2019-04-04T12:25:06.407Z,8.80
2019-04-04T12:27:53.535Z,8.80
2019-04-04T12:30:24.806Z,8.90
2019-04-04T12:33:01.712Z,8.90
2019-04-04T12:35:33.965Z,9.00
2019-04-04T12:38:08.232Z,8.90
2019-04-04T12:40:57.239Z,8.80
2019-04-04T12:43:38.950Z,8.80
2019-04-04T12:46:15.282Z,8.70
2019-04-04T12:48:46.828Z,8.50
2019-04-04T12:51:17.598Z,8.60
2019-04-04T12:53:47.630Z,8.50
2019-04-04T12:56:27.966Z,8.50
2019-04-04T12:59:17.404Z,8.50
2019-04-04T13:01:50.193Z,8.60
2019-04-04T13:04:30.956Z,8.70
2019-04-04T13:06:55.280Z,8.60
2019-04-04T13:09:26.781Z,8.50
2019-04-04T13:11:59.413Z,8.60
2019-04-04T13:14:29.743Z,8.50
2019-04-04T13:17:04.303Z,8.60
2019-04-04T13:19:35.335Z,8.50
2019-04-04T13:22:27.771Z,8.60
2019-04-04T13:25:00.911Z,8.50
2019-04-04T13:27:31.716Z,8.60
2019-04-04T13:30:02.722Z,8.70
2019-04-04T13:32:34.116Z,8.80
2019-04-04T13:35:15.764Z,8.90
2019-04-04T13:37:50.666Z,9.00
2019-04-04T13:40:28.281Z,8.90
2019-04-04T13:43:08.782Z,8.80
2019-04-04T13:45:40.988Z,8.70
2019-04-04T13:48:13.355Z,8.60
2019-04-04T13:50:46.973Z,8.40
2019-04-04T13:53:20.650Z,8.40
2019-04-04T13:55:54.448Z,8.30
2019-04-04T13:58:55.869Z,8.40
2019-04-04T14:01:26.822Z,8.30
2019-04-04T14:03:57.085Z,8.30
2019-04-04T14:06:32.817Z,8.20
2019-04-04T14:09:19.693Z,8.00
2019-04-04T14:12:04.126Z,8.10
2019-04-04T14:14:37.796Z,8.20
2019-04-04T14:17:08.526Z,8.10
2019-04-04T14:19:39.098Z,8.10
2019-04-04T14:22:11.929Z,8.00
2019-04-04T14:24:47.747Z,7.90
2019-04-04T14:27:18.533Z,8.00
2019-04-04T14:29:49.432Z,8.00
2019-04-04T14:32:21.377Z,8.10
2019-04-04T14:34:55.692Z,8.10
2019-04-04T14:37:31.305Z,8.20
2019-04-04T14:40:05.388Z,8.20
2019-04-04T14:42:40.876Z,8.10
2019-04-04T14:45:15.281Z,8.20
2019-04-04T14:47:52.708Z,8.20
2019-04-04T14:50:28.079Z,8.20
2019-04-04T14:52:58.612Z,8.20
2019-04-04T14:55:36.107Z,8.10
2019-04-04T14:58:06.567Z,8.10
2019-04-04T15:00:45.704Z,7.90
2019-04-04T15:03:16.914Z,7.90
2019-04-04T15:05:51.432Z,7.80
2019-04-04T15:08:23.668Z,7.80
2019-04-04T15:10:54.141Z,7.70
2019-04-04T15:13:29.843Z,7.60
2019-04-04T15:16:40.721Z,7.50
2019-04-04T15:19:15.279Z,7.40
2019-04-04T15:24:56.027Z,7.40
2019-04-04T15:27:30.687Z,7.40
2019-04-04T15:30:02.577Z,7.40
2019-04-04T15:32:34.881Z,7.40
2019-04-04T15:38:21.228Z,7.30
2019-04-04T15:41:03.930Z,7.40
2019-04-04T15:43:38.838Z,7.40
2019-04-04T15:46:11.501Z,7.50
2019-04-04T15:48:49.705Z,7.50
2019-04-04T15:51:25.437Z,7.60
2019-04-04T15:54:03.197Z,7.60
2019-04-04T15:56:36.268Z,7.50
2019-04-04T15:59:25.820Z,7.60
2019-04-04T16:01:57.798Z,7.70
2019-04-04T16:04:31.278Z,7.70
2019-04-04T16:07:14.094Z,7.70
2019-04-04T16:09:50.427Z,7.80
2019-04-04T16:12:55.821Z,7.90
2019-04-04T16:15:29.488Z,7.90
2019-04-04T16:18:11.276Z,8.00
2019-04-04T16:20:46.555Z,8.00
2019-04-04T16:23:18.966Z,7.90
2019-04-04T16:25:53.285Z,7.90
2019-04-04T16:28:23.670Z,7.90
2019-04-04T16:30:54.567Z,7.90
2019-04-04T16:33:38.734Z,7.90
2019-04-04T16:36:11.438Z,7.80
2019-04-04T16:38:45.449Z,7.90
2019-04-04T16:41:18.657Z,7.90
2019-04-04T16:43:50.981Z,8.00
2019-04-04T16:46:27.524Z,8.00
2019-04-04T16:49:06.639Z,8.10
2019-04-04T16:51:49.675Z,8.00
2019-04-04T16:54:21.078Z,7.90
2019-04-04T16:56:55.497Z,7.90
2019-04-04T16:59:47.153Z,7.90
2019-04-04T17:02:32.197Z,7.90
2019-04-04T17:05:31.635Z,8.00
2019-04-04T17:08:32.055Z,7.90
2019-04-04T17:11:05.143Z,8.00
2019-04-04T17:13:38.920Z,8.10
2019-04-04T17:16:21.461Z,8.10
2019-04-04T17:19:10.185Z,8.00
2019-04-04T17:21:53.402Z,8.00
2019-04-04T17:24:31.978Z,7.90
2019-04-04T17:27:10.154Z,8.00
2019-04-04T17:29:52.408Z,8.10
2019-04-04T17:32:32.186Z,8.10
2019-04-04T17:35:05.121Z,8.10
2019-04-04T17:37:41.645Z,8.10
2019-04-04T17:40:19.267Z,8.10
2019-04-04T17:43:18.604Z,8.10
2019-04-04T17:45:58.712Z,8.10
2019-04-04T17:48:34.705Z,8.10
2019-04-04T17:51:22.993Z,8.10
2019-04-04T17:54:18.769Z,8.20
2019-04-04T18:00:13.400Z,8.20
2019-04-04T18:02:55.033Z,8.20
2019-04-04T18:05:31.310Z,8.30
2019-04-04T18:08:14.530Z,8.40
2019-04-04T18:10:49.069Z,8.60
2019-04-04T18:13:32.417Z,8.70
2019-04-04T18:16:11.132Z,8.80
2019-04-04T18:18:44.549Z,8.80
2019-04-04T18:21:15.304Z,8.80
2019-04-04T18:23:51.428Z,8.80
2019-04-04T18:26:29.162Z,8.80
2019-04-04T18:29:22.155Z,8.80
2019-04-04T18:31:58.001Z,8.80
2019-04-04T18:34:42.350Z,8.80
2019-04-04T18:37:22.235Z,8.70
2019-04-04T18:40:02.727Z,8.80
2019-04-04T18:42:53.250Z,8.80
2019-04-04T18:45:24.324Z,8.70
2019-04-04T18:48:04.590Z,8.60
2019-04-04T18:50:44.687Z,8.60
2019-04-04T18:53:19.232Z,8.60
2019-04-04T18:55:55.140Z,8.60
2019-04-04T18:58:33.506Z,8.60
2019-04-04T19:01:09.728Z,8.50
2019-04-04T19:04:02.179Z,8.50
2019-04-04T19:06:37.447Z,8.50
2019-04-04T19:09:15.522Z,8.40
2019-04-04T19:11:48.042Z,8.30
2019-04-04T19:14:23.578Z,8.40
2019-04-04T19:16:58.667Z,8.30
2019-04-04T19:19:32.831Z,8.30
2019-04-04T19:22:20.833Z,8.30
2019-04-04T19:25:49.453Z,8.40
2019-04-04T19:29:21.602Z,8.40
2019-04-04T19:31:51.079Z,8.40
2019-04-04T19:34:24.018Z,8.50
2019-04-04T19:37:24.446Z,8.50
2019-04-04T19:40:17.387Z,8.60
2019-04-04T19:42:59.160Z,8.60
2019-04-04T19:45:29.844Z,8.70
2019-04-04T19:48:03.643Z,8.70
2019-04-04T19:50:38.934Z,8.80
2019-04-04T19:53:09.249Z,8.70
2019-04-04T19:55:55.858Z,8.60
2019-04-04T19:58:27.310Z,8.60
2019-04-04T20:01:01.743Z,8.70
2019-04-04T20:03:32.412Z,8.60
2019-04-04T20:06:03.175Z,8.60
2019-04-04T20:08:33.937Z,8.60
2019-04-04T20:11:08.783Z,8.70
2019-04-04T20:13:43.241Z,8.60
2019-04-04T20:16:21.161Z,8.60
2019-04-04T20:18:55.374Z,8.50
2019-04-04T20:21:25.941Z,8.50
2019-04-04T20:24:03.287Z,8.60
2019-04-04T20:26:36.051Z,8.60
2019-04-04T20:29:12.169Z,8.70
2019-04-04T20:31:45.439Z,8.70
2019-04-04T20:34:28.461Z,8.70
2019-04-04T20:37:02.334Z,8.70
2019-04-04T20:39:34.435Z,8.70
2019-04-04T20:42:11.990Z,8.60
2019-04-04T20:44:43.735Z,8.60
2019-04-04T20:47:21.551Z,8.60
2019-04-04T20:50:09.483Z,8.70
2019-04-04T20:52:40.001Z,8.60
2019-04-04T20:55:18.491Z,8.70
2019-04-04T20:58:06.949Z,8.70
2019-04-04T21:00:41.891Z,8.80
2019-04-04T21:03:39.247Z,8.90
2019-04-04T21:06:15.360Z,9.00
2019-04-04T21:08:48.071Z,9.00
2019-04-04T21:11:30.407Z,8.90
2019-04-04T21:14:02.851Z,8.90
2019-04-04T21:16:32.938Z,8.80
2019-04-04T21:19:17.398Z,8.70
2019-04-04T21:21:58.535Z,8.70
2019-04-04T21:24:41.749Z,8.70
2019-04-04T21:27:18.791Z,8.60
2019-04-04T21:30:03.133Z,8.50
2019-04-04T21:32:33.613Z,8.50
2019-04-04T21:35:06.325Z,8.40
2019-04-04T21:37:40.232Z,8.40
2019-04-04T21:40:11.679Z,8.30
2019-04-04T21:43:01.364Z,8.30
2019-04-04T21:45:37.732Z,8.30
2019-04-04T21:48:10.738Z,8.30
2019-04-04T21:50:41.533Z,8.20
2019-04-04T21:53:11.875Z,8.10
2019-04-04T21:55:45.896Z,8.00
2019-04-04T21:58:35.458Z,7.90
2019-04-04T22:01:06.560Z,7.80
2019-04-04T22:03:37.567Z,7.70
2019-04-04T22:06:10.571Z,7.70
2019-04-04T22:08:40.400Z,7.60
2019-04-04T22:11:11.017Z,7.50
2019-04-04T22:13:45.173Z,7.40
2019-04-04T22:16:15.296Z,7.40
2019-04-04T22:18:46.982Z,7.40
2019-04-04T22:21:18.568Z,7.30
2019-04-04T22:23:50.828Z,7.40
2019-04-04T22:26:23.903Z,7.30
2019-04-04T22:28:58.039Z,7.30
2019-04-04T22:31:31.573Z,7.20
2019-04-04T22:34:07.985Z,7.20
2019-04-04T22:36:38.144Z,7.20
2019-04-04T22:39:10.401Z,7.20
2019-04-04T22:41:43.880Z,7.20
2019-04-04T22:44:14.016Z,7.20
2019-04-04T22:46:44.176Z,7.20
2019-04-04T22:49:14.399Z,7.20
2019-04-04T22:51:44.372Z,7.10
2019-04-04T22:54:14.440Z,7.10
2019-04-04T22:56:44.293Z,7.00
2019-04-04T22:59:14.850Z,7.00
2019-04-04T23:01:48.026Z,7.10
2019-04-04T23:04:19.235Z,7.10
2019-04-04T23:06:50.400Z,7.00
2019-04-04T23:09:23.053Z,7.00
2019-04-04T23:12:08.312Z,6.90
2019-04-04T23:14:48.017Z,6.90
2019-04-04T23:17:12.872Z,6.90
2019-04-04T23:19:47.858Z,6.90
2019-04-04T23:22:22.531Z,6.80
2019-04-04T23:24:52.448Z,6.90
2019-04-04T23:27:22.520Z,6.80
2019-04-04T23:29:54.295Z,6.70
2019-04-04T23:32:25.338Z,6.70
2019-04-04T23:34:55.909Z,6.70
2019-04-04T23:37:25.943Z,6.60
2019-04-04T23:39:57.803Z,6.60
2019-04-04T23:42:28.494Z,6.70
2019-04-04T23:45:01.211Z,6.80
2019-04-04T23:47:41.935Z,6.80
2019-04-04T23:50:04.051Z,6.90
2019-04-04T23:52:34.268Z,6.90
2019-04-04T23:55:04.515Z,6.80
2019-04-04T23:57:34.352Z,6.80
